sensor_id;sensor_type;location;lat;lon;timestamp;P1;durP1;ratioP1;P2;durP2;ratioP2
3369;SDS011;42042;51.948;7.628;2022-10-16T00:01:45;11.77;;;8.87;;
3369;SDS011;42042;51.948;7.628;2022-10-16T00:04:13;10.20;;;7.60;;
3369;SDS011;42042;51.948;7.628;2022-10-16T00:06:40;10.33;;;8.30;;
3369;SDS011;42042;51.948;7.628;2022-10-16T00:09:09;12.87;;;8.97;;
3369;SDS011;42042;51.948;7.628;2022-10-16T00:11:37;17.50;;;8.97;;
3369;SDS011;42042;51.948;7.628;2022-10-16T00:14:05;21.03;;;9.77;;
3369;SDS011;42042;51.948;7.628;2022-10-16T00:16:33;11.37;;;9.83;;
3369;SDS011;42042;51.948;7.628;2022-10-16T00:19:00;10.30;;;8.37;;
3369;SDS011;42042;51.948;7.628;2022-10-16T00:21:28;13.00;;;9.17;;
3369;SDS011;42042;51.948;7.628;2022-10-16T00:23:56;12.47;;;8.80;;
3369;SDS011;42042;51.948;7.628;2022-10-16T00:26:26;11.07;;;8.20;;
3369;SDS011;42042;51.948;7.628;2022-10-16T00:28:53;10.53;;;9.23;;
3369;SDS011;42042;51.948;7.628;2022-10-16T00:31:21;9.90;;;8.33;;
3369;SDS011;42042;51.948;7.628;2022-10-16T00:33:49;14.30;;;8.60;;
3369;SDS011;42042;51.948;7.628;2022-10-16T00:36:17;11.87;;;8.57;;
3369;SDS011;42042;51.948;7.628;2022-10-16T00:38:44;9.60;;;8.50;;
3369;SDS011;42042;51.948;7.628;2022-10-16T00:41:12;14.80;;;8.77;;
3369;SDS011;42042;51.948;7.628;2022-10-16T00:43:42;13.63;;;9.10;;
3369;SDS011;42042;51.948;7.628;2022-10-16T00:46:11;11.80;;;8.40;;
3369;SDS011;42042;51.948;7.628;2022-10-16T00:48:40;9.40;;;8.40;;
3369;SDS011;42042;51.948;7.628;2022-10-16T00:51:07;11.23;;;8.27;;
3369;SDS011;42042;51.948;7.628;2022-10-16T00:53:35;15.10;;;9.17;;
3369;SDS011;42042;51.948;7.628;2022-10-16T00:56:02;9.63;;;8.63;;
3369;SDS011;42042;51.948;7.628;2022-10-16T00:58:29;11.80;;;10.10;;
3369;SDS011;42042;51.948;7.628;2022-10-16T01:00:58;13.70;;;9.40;;
3369;SDS011;42042;51.948;7.628;2022-10-16T01:03:26;15.00;;;10.37;;
3369;SDS011;42042;51.948;7.628;2022-10-16T01:05:57;12.83;;;10.80;;
3369;SDS011;42042;51.948;7.628;2022-10-16T01:08:27;19.60;;;11.27;;
3369;SDS011;42042;51.948;7.628;2022-10-16T01:10:59;12.87;;;10.10;;
3369;SDS011;42042;51.948;7.628;2022-10-16T01:13:30;14.43;;;9.60;;
3369;SDS011;42042;51.948;7.628;2022-10-16T01:16:03;12.33;;;9.70;;
3369;SDS011;42042;51.948;7.628;2022-10-16T01:18:32;15.80;;;10.90;;
3369;SDS011;42042;51.948;7.628;2022-10-16T01:21:01;13.90;;;11.13;;
3369;SDS011;42042;51.948;7.628;2022-10-16T01:23:34;12.30;;;10.13;;
3369;SDS011;42042;51.948;7.628;2022-10-16T01:26:14;10.23;;;8.37;;
3369;SDS011;42042;51.948;7.628;2022-10-16T01:28:50;10.70;;;8.63;;
3369;SDS011;42042;51.948;7.628;2022-10-16T01:31:18;15.00;;;10.20;;
3369;SDS011;42042;51.948;7.628;2022-10-16T01:33:47;10.17;;;8.40;;
3369;SDS011;42042;51.948;7.628;2022-10-16T01:36:18;10.07;;;8.30;;
3369;SDS011;42042;51.948;7.628;2022-10-16T01:38:49;9.23;;;7.70;;
3369;SDS011;42042;51.948;7.628;2022-10-16T01:41:19;13.60;;;7.43;;
3369;SDS011;42042;51.948;7.628;2022-10-16T01:43:48;11.03;;;8.67;;
3369;SDS011;42042;51.948;7.628;2022-10-16T01:46:18;12.70;;;9.10;;
3369;SDS011;42042;51.948;7.628;2022-10-16T01:48:46;11.37;;;7.53;;
3369;SDS011;42042;51.948;7.628;2022-10-16T01:51:14;9.80;;;7.83;;
3369;SDS011;42042;51.948;7.628;2022-10-16T01:53:43;13.07;;;9.63;;
3369;SDS011;42042;51.948;7.628;2022-10-16T01:56:12;10.00;;;9.10;;
3369;SDS011;42042;51.948;7.628;2022-10-16T01:58:41;10.40;;;7.70;;
3369;SDS011;42042;51.948;7.628;2022-10-16T02:01:09;9.20;;;7.50;;
3369;SDS011;42042;51.948;7.628;2022-10-16T02:03:39;11.63;;;7.70;;
3369;SDS011;42042;51.948;7.628;2022-10-16T02:06:08;14.97;;;9.23;;
3369;SDS011;42042;51.948;7.628;2022-10-16T02:08:35;12.37;;;8.67;;
3369;SDS011;42042;51.948;7.628;2022-10-16T02:11:03;11.43;;;8.00;;
3369;SDS011;42042;51.948;7.628;2022-10-16T02:13:32;12.30;;;8.03;;
3369;SDS011;42042;51.948;7.628;2022-10-16T02:16:00;8.83;;;7.50;;
3369;SDS011;42042;51.948;7.628;2022-10-16T02:18:27;10.33;;;7.60;;
3369;SDS011;42042;51.948;7.628;2022-10-16T02:20:57;9.00;;;7.20;;
3369;SDS011;42042;51.948;7.628;2022-10-16T02:23:28;9.17;;;7.33;;
3369;SDS011;42042;51.948;7.628;2022-10-16T02:25:56;9.90;;;7.47;;
3369;SDS011;42042;51.948;7.628;2022-10-16T02:28:27;17.73;;;8.23;;
3369;SDS011;42042;51.948;7.628;2022-10-16T02:30:56;10.40;;;7.83;;
3369;SDS011;42042;51.948;7.628;2022-10-16T02:33:24;12.13;;;7.70;;
3369;SDS011;42042;51.948;7.628;2022-10-16T02:35:52;12.07;;;7.50;;
3369;SDS011;42042;51.948;7.628;2022-10-16T02:38:21;12.80;;;8.63;;
3369;SDS011;42042;51.948;7.628;2022-10-16T02:40:49;14.50;;;10.30;;
3369;SDS011;42042;51.948;7.628;2022-10-16T02:43:16;11.10;;;8.27;;
3369;SDS011;42042;51.948;7.628;2022-10-16T02:45:44;11.20;;;8.10;;
3369;SDS011;42042;51.948;7.628;2022-10-16T02:48:11;10.60;;;7.47;;
3369;SDS011;42042;51.948;7.628;2022-10-16T02:50:38;10.93;;;8.80;;
3369;SDS011;42042;51.948;7.628;2022-10-16T02:53:05;11.43;;;7.50;;
3369;SDS011;42042;51.948;7.628;2022-10-16T02:55:34;9.93;;;8.00;;
3369;SDS011;42042;51.948;7.628;2022-10-16T02:58:01;14.10;;;7.90;;
3369;SDS011;42042;51.948;7.628;2022-10-16T03:00:28;9.30;;;7.30;;
3369;SDS011;42042;51.948;7.628;2022-10-16T03:02:55;9.07;;;7.47;;
3369;SDS011;42042;51.948;7.628;2022-10-16T03:05:22;11.80;;;8.60;;
3369;SDS011;42042;51.948;7.628;2022-10-16T03:07:49;11.83;;;7.63;;
3369;SDS011;42042;51.948;7.628;2022-10-16T03:10:17;9.77;;;7.40;;
3369;SDS011;42042;51.948;7.628;2022-10-16T03:12:46;10.17;;;7.90;;
3369;SDS011;42042;51.948;7.628;2022-10-16T03:15:13;8.13;;;7.20;;
3369;SDS011;42042;51.948;7.628;2022-10-16T03:17:41;8.00;;;7.03;;
3369;SDS011;42042;51.948;7.628;2022-10-16T03:20:08;10.90;;;8.10;;
3369;SDS011;42042;51.948;7.628;2022-10-16T03:22:35;11.30;;;7.27;;
3369;SDS011;42042;51.948;7.628;2022-10-16T03:25:02;10.40;;;7.93;;
3369;SDS011;42042;51.948;7.628;2022-10-16T03:27:30;8.80;;;6.67;;
3369;SDS011;42042;51.948;7.628;2022-10-16T03:29:58;7.83;;;7.03;;
3369;SDS011;42042;51.948;7.628;2022-10-16T03:32:25;7.37;;;6.60;;
3369;SDS011;42042;51.948;7.628;2022-10-16T03:34:53;10.13;;;6.90;;
3369;SDS011;42042;51.948;7.628;2022-10-16T03:37:22;7.77;;;7.07;;
3369;SDS011;42042;51.948;7.628;2022-10-16T03:39:49;8.73;;;7.67;;
3369;SDS011;42042;51.948;7.628;2022-10-16T03:42:16;8.03;;;7.20;;
3369;SDS011;42042;51.948;7.628;2022-10-16T03:44:43;10.50;;;7.00;;
3369;SDS011;42042;51.948;7.628;2022-10-16T03:47:12;13.23;;;7.90;;
3369;SDS011;42042;51.948;7.628;2022-10-16T03:49:39;8.10;;;7.30;;
3369;SDS011;42042;51.948;7.628;2022-10-16T03:52:06;8.93;;;6.90;;
3369;SDS011;42042;51.948;7.628;2022-10-16T03:54:33;8.90;;;7.97;;
3369;SDS011;42042;51.948;7.628;2022-10-16T03:57:00;11.00;;;7.63;;
3369;SDS011;42042;51.948;7.628;2022-10-16T03:59:28;8.67;;;7.80;;
3369;SDS011;42042;51.948;7.628;2022-10-16T04:01:55;8.97;;;8.07;;
3369;SDS011;42042;51.948;7.628;2022-10-16T04:04:23;13.20;;;8.30;;
3369;SDS011;42042;51.948;7.628;2022-10-16T04:06:51;10.70;;;8.87;;
3369;SDS011;42042;51.948;7.628;2022-10-16T04:09:18;9.57;;;7.80;;
3369;SDS011;42042;51.948;7.628;2022-10-16T04:11:45;13.30;;;8.27;;
3369;SDS011;42042;51.948;7.628;2022-10-16T04:14:12;13.60;;;7.83;;
3369;SDS011;42042;51.948;7.628;2022-10-16T04:16:39;9.23;;;8.27;;
3369;SDS011;42042;51.948;7.628;2022-10-16T04:19:07;13.47;;;8.40;;
3369;SDS011;42042;51.948;7.628;2022-10-16T04:21:35;15.13;;;8.17;;
3369;SDS011;42042;51.948;7.628;2022-10-16T04:24:02;10.47;;;7.63;;
3369;SDS011;42042;51.948;7.628;2022-10-16T04:26:30;12.27;;;8.67;;
3369;SDS011;42042;51.948;7.628;2022-10-16T04:28:57;8.83;;;7.90;;
3369;SDS011;42042;51.948;7.628;2022-10-16T04:31:24;11.33;;;8.90;;
3369;SDS011;42042;51.948;7.628;2022-10-16T04:33:51;7.70;;;7.07;;
3369;SDS011;42042;51.948;7.628;2022-10-16T04:36:19;7.50;;;6.73;;
3369;SDS011;42042;51.948;7.628;2022-10-16T04:38:47;8.93;;;7.87;;
3369;SDS011;42042;51.948;7.628;2022-10-16T04:41:14;10.90;;;7.00;;
3369;SDS011;42042;51.948;7.628;2022-10-16T04:43:41;9.60;;;7.67;;
3369;SDS011;42042;51.948;7.628;2022-10-16T04:46:09;11.23;;;8.03;;
3369;SDS011;42042;51.948;7.628;2022-10-16T04:48:36;10.17;;;7.97;;
3369;SDS011;42042;51.948;7.628;2022-10-16T04:51:03;8.97;;;7.80;;
3369;SDS011;42042;51.948;7.628;2022-10-16T04:53:30;8.87;;;7.00;;
3369;SDS011;42042;51.948;7.628;2022-10-16T04:55:59;8.73;;;7.10;;
3369;SDS011;42042;51.948;7.628;2022-10-16T04:58:26;9.50;;;6.97;;
3369;SDS011;42042;51.948;7.628;2022-10-16T05:00:54;6.97;;;6.27;;
3369;SDS011;42042;51.948;7.628;2022-10-16T05:03:21;6.03;;;5.47;;
3369;SDS011;42042;51.948;7.628;2022-10-16T05:05:48;7.70;;;5.87;;
3369;SDS011;42042;51.948;7.628;2022-10-16T05:08:15;6.90;;;6.00;;
3369;SDS011;42042;51.948;7.628;2022-10-16T05:10:43;7.20;;;6.50;;
3369;SDS011;42042;51.948;7.628;2022-10-16T05:13:12;6.17;;;5.57;;
3369;SDS011;42042;51.948;7.628;2022-10-16T05:15:39;6.20;;;5.40;;
3369;SDS011;42042;51.948;7.628;2022-10-16T05:18:06;6.93;;;5.67;;
3369;SDS011;42042;51.948;7.628;2022-10-16T05:20:34;6.43;;;5.10;;
3369;SDS011;42042;51.948;7.628;2022-10-16T05:23:01;7.30;;;5.20;;
3369;SDS011;42042;51.948;7.628;2022-10-16T05:25:28;6.93;;;5.33;;
3369;SDS011;42042;51.948;7.628;2022-10-16T05:27:55;14.17;;;5.53;;
3369;SDS011;42042;51.948;7.628;2022-10-16T05:30:24;7.07;;;5.13;;
3369;SDS011;42042;51.948;7.628;2022-10-16T05:32:51;5.77;;;5.27;;
3369;SDS011;42042;51.948;7.628;2022-10-16T05:35:18;6.30;;;5.40;;
3369;SDS011;42042;51.948;7.628;2022-10-16T05:37:46;6.53;;;5.10;;
3369;SDS011;42042;51.948;7.628;2022-10-16T05:40:13;6.03;;;5.53;;
3369;SDS011;42042;51.948;7.628;2022-10-16T05:42:41;5.87;;;4.60;;
3369;SDS011;42042;51.948;7.628;2022-10-16T05:45:09;5.90;;;4.50;;
3369;SDS011;42042;51.948;7.628;2022-10-16T05:47:38;6.73;;;5.30;;
3369;SDS011;42042;51.948;7.628;2022-10-16T05:50:05;4.87;;;4.47;;
3369;SDS011;42042;51.948;7.628;2022-10-16T05:52:33;5.20;;;4.67;;
3369;SDS011;42042;51.948;7.628;2022-10-16T05:55:00;5.00;;;4.50;;
3369;SDS011;42042;51.948;7.628;2022-10-16T05:57:27;5.60;;;4.30;;
3369;SDS011;42042;51.948;7.628;2022-10-16T05:59:54;4.97;;;4.50;;
3369;SDS011;42042;51.948;7.628;2022-10-16T06:02:22;7.20;;;4.63;;
3369;SDS011;42042;51.948;7.628;2022-10-16T06:04:50;6.57;;;4.80;;
3369;SDS011;42042;51.948;7.628;2022-10-16T06:07:19;12.70;;;5.03;;
3369;SDS011;42042;51.948;7.628;2022-10-16T06:09:47;5.47;;;3.87;;
3369;SDS011;42042;51.948;7.628;2022-10-16T06:12:14;5.10;;;4.40;;
3369;SDS011;42042;51.948;7.628;2022-10-16T06:14:42;4.40;;;3.73;;
3369;SDS011;42042;51.948;7.628;2022-10-16T06:17:09;4.00;;;3.70;;
3369;SDS011;42042;51.948;7.628;2022-10-16T06:19:36;3.73;;;3.40;;
3369;SDS011;42042;51.948;7.628;2022-10-16T06:22:04;4.27;;;3.50;;
3369;SDS011;42042;51.948;7.628;2022-10-16T06:24:32;5.40;;;4.90;;
3369;SDS011;42042;51.948;7.628;2022-10-16T06:27:00;5.80;;;3.80;;
3369;SDS011;42042;51.948;7.628;2022-10-16T06:29:27;3.73;;;3.30;;
3369;SDS011;42042;51.948;7.628;2022-10-16T06:31:54;3.23;;;2.93;;
3369;SDS011;42042;51.948;7.628;2022-10-16T06:34:21;3.87;;;3.07;;
3369;SDS011;42042;51.948;7.628;2022-10-16T06:36:48;3.90;;;3.23;;
3369;SDS011;42042;51.948;7.628;2022-10-16T06:39:17;3.60;;;3.30;;
3369;SDS011;42042;51.948;7.628;2022-10-16T06:41:44;6.17;;;3.00;;
3369;SDS011;42042;51.948;7.628;2022-10-16T06:44:11;6.40;;;3.60;;
3369;SDS011;42042;51.948;7.628;2022-10-16T06:46:38;3.67;;;3.37;;
3369;SDS011;42042;51.948;7.628;2022-10-16T06:49:06;3.80;;;3.33;;
3369;SDS011;42042;51.948;7.628;2022-10-16T06:51:33;3.03;;;2.83;;
3369;SDS011;42042;51.948;7.628;2022-10-16T06:54:01;7.40;;;2.90;;
3369;SDS011;42042;51.948;7.628;2022-10-16T06:56:32;4.00;;;3.37;;
3369;SDS011;42042;51.948;7.628;2022-10-16T06:58:59;3.30;;;3.10;;
3369;SDS011;42042;51.948;7.628;2022-10-16T07:01:27;3.90;;;3.50;;
3369;SDS011;42042;51.948;7.628;2022-10-16T07:03:54;4.07;;;3.73;;
3369;SDS011;42042;51.948;7.628;2022-10-16T07:06:22;4.00;;;3.60;;
3369;SDS011;42042;51.948;7.628;2022-10-16T07:08:50;3.33;;;3.07;;
3369;SDS011;42042;51.948;7.628;2022-10-16T07:11:18;4.33;;;3.30;;
3369;SDS011;42042;51.948;7.628;2022-10-16T07:13:47;4.83;;;3.70;;
3369;SDS011;42042;51.948;7.628;2022-10-16T07:16:15;4.20;;;3.80;;
3369;SDS011;42042;51.948;7.628;2022-10-16T07:18:43;3.80;;;3.50;;
3369;SDS011;42042;51.948;7.628;2022-10-16T07:21:11;3.87;;;3.57;;
3369;SDS011;42042;51.948;7.628;2022-10-16T07:23:39;4.23;;;3.83;;
3369;SDS011;42042;51.948;7.628;2022-10-16T07:26:06;3.47;;;3.23;;
3369;SDS011;42042;51.948;7.628;2022-10-16T07:28:34;5.77;;;3.10;;
3369;SDS011;42042;51.948;7.628;2022-10-16T07:31:03;4.07;;;3.30;;
3369;SDS011;42042;51.948;7.628;2022-10-16T07:33:31;6.50;;;4.73;;
3369;SDS011;42042;51.948;7.628;2022-10-16T07:35:58;3.73;;;3.43;;
3369;SDS011;42042;51.948;7.628;2022-10-16T07:38:25;6.50;;;3.83;;
3369;SDS011;42042;51.948;7.628;2022-10-16T07:40:55;4.97;;;3.17;;
3369;SDS011;42042;51.948;7.628;2022-10-16T07:43:24;4.03;;;3.17;;
3369;SDS011;42042;51.948;7.628;2022-10-16T07:45:51;4.57;;;3.40;;
3369;SDS011;42042;51.948;7.628;2022-10-16T07:48:19;3.43;;;3.13;;
3369;SDS011;42042;51.948;7.628;2022-10-16T07:50:46;5.37;;;3.37;;
3369;SDS011;42042;51.948;7.628;2022-10-16T07:53:14;4.90;;;3.60;;
3369;SDS011;42042;51.948;7.628;2022-10-16T07:55:41;4.67;;;3.40;;
3369;SDS011;42042;51.948;7.628;2022-10-16T07:58:08;4.47;;;4.07;;
3369;SDS011;42042;51.948;7.628;2022-10-16T08:00:36;4.30;;;3.83;;
3369;SDS011;42042;51.948;7.628;2022-10-16T08:03:03;4.50;;;2.77;;
3369;SDS011;42042;51.948;7.628;2022-10-16T08:05:32;6.90;;;3.50;;
3369;SDS011;42042;51.948;7.628;2022-10-16T08:08:00;3.50;;;3.20;;
3369;SDS011;42042;51.948;7.628;2022-10-16T08:10:28;4.43;;;2.90;;
3369;SDS011;42042;51.948;7.628;2022-10-16T08:12:56;4.30;;;2.73;;
3369;SDS011;42042;51.948;7.628;2022-10-16T08:15:24;3.93;;;3.50;;
3369;SDS011;42042;51.948;7.628;2022-10-16T08:17:54;3.40;;;3.10;;
3369;SDS011;42042;51.948;7.628;2022-10-16T08:20:22;4.80;;;3.33;;
3369;SDS011;42042;51.948;7.628;2022-10-16T08:22:50;3.80;;;2.97;;
3369;SDS011;42042;51.948;7.628;2022-10-16T08:25:17;6.47;;;2.87;;
3369;SDS011;42042;51.948;7.628;2022-10-16T08:27:45;5.70;;;2.70;;
3369;SDS011;42042;51.948;7.628;2022-10-16T08:30:12;2.67;;;2.47;;
3369;SDS011;42042;51.948;7.628;2022-10-16T08:32:39;4.60;;;3.17;;
3369;SDS011;42042;51.948;7.628;2022-10-16T08:35:07;3.70;;;3.30;;
3369;SDS011;42042;51.948;7.628;2022-10-16T08:37:35;3.63;;;3.10;;
3369;SDS011;42042;51.948;7.628;2022-10-16T08:40:04;4.30;;;2.77;;
3369;SDS011;42042;51.948;7.628;2022-10-16T08:42:38;7.40;;;3.37;;
3369;SDS011;42042;51.948;7.628;2022-10-16T08:45:15;4.10;;;2.60;;
3369;SDS011;42042;51.948;7.628;2022-10-16T08:47:48;7.20;;;3.00;;
3369;SDS011;42042;51.948;7.628;2022-10-16T08:50:18;8.70;;;2.87;;
3369;SDS011;42042;51.948;7.628;2022-10-16T08:52:48;8.50;;;3.20;;
3369;SDS011;42042;51.948;7.628;2022-10-16T08:55:19;7.00;;;2.90;;
3369;SDS011;42042;51.948;7.628;2022-10-16T08:57:50;4.43;;;2.40;;
3369;SDS011;42042;51.948;7.628;2022-10-16T09:00:17;7.57;;;2.90;;
3369;SDS011;42042;51.948;7.628;2022-10-16T09:02:45;9.90;;;2.87;;
3369;SDS011;42042;51.948;7.628;2022-10-16T09:05:24;3.83;;;2.63;;
3369;SDS011;42042;51.948;7.628;2022-10-16T09:07:55;6.33;;;3.00;;
3369;SDS011;42042;51.948;7.628;2022-10-16T09:10:29;3.13;;;2.20;;
3369;SDS011;42042;51.948;7.628;2022-10-16T09:13:02;3.70;;;2.57;;
3369;SDS011;42042;51.948;7.628;2022-10-16T09:15:35;5.47;;;2.30;;
3369;SDS011;42042;51.948;7.628;2022-10-16T09:18:05;4.70;;;3.00;;
3369;SDS011;42042;51.948;7.628;2022-10-16T09:20:39;3.00;;;1.97;;
3369;SDS011;42042;51.948;7.628;2022-10-16T09:23:12;4.03;;;3.30;;
3369;SDS011;42042;51.948;7.628;2022-10-16T09:25:43;3.17;;;2.30;;
3369;SDS011;42042;51.948;7.628;2022-10-16T09:28:12;4.53;;;2.40;;
3369;SDS011;42042;51.948;7.628;2022-10-16T09:30:40;5.20;;;2.67;;
3369;SDS011;42042;51.948;7.628;2022-10-16T09:33:07;3.90;;;2.30;;
3369;SDS011;42042;51.948;7.628;2022-10-16T09:35:36;4.27;;;2.47;;
3369;SDS011;42042;51.948;7.628;2022-10-16T09:38:04;3.47;;;2.00;;
3369;SDS011;42042;51.948;7.628;2022-10-16T09:40:32;3.33;;;1.90;;
3369;SDS011;42042;51.948;7.628;2022-10-16T09:43:06;2.90;;;2.27;;
3369;SDS011;42042;51.948;7.628;2022-10-16T09:45:38;8.73;;;2.40;;
3369;SDS011;42042;51.948;7.628;2022-10-16T09:48:10;3.53;;;2.27;;
3369;SDS011;42042;51.948;7.628;2022-10-16T09:50:37;4.10;;;2.67;;
3369;SDS011;42042;51.948;7.628;2022-10-16T09:53:05;3.93;;;2.40;;
3369;SDS011;42042;51.948;7.628;2022-10-16T09:55:32;4.10;;;2.60;;
3369;SDS011;42042;51.948;7.628;2022-10-16T09:57:59;2.60;;;1.97;;
3369;SDS011;42042;51.948;7.628;2022-10-16T10:00:28;3.40;;;2.10;;
3369;SDS011;42042;51.948;7.628;2022-10-16T10:02:57;3.17;;;1.93;;
3369;SDS011;42042;51.948;7.628;2022-10-16T10:05:24;5.47;;;2.30;;
3369;SDS011;42042;51.948;7.628;2022-10-16T10:07:56;4.03;;;2.47;;
3369;SDS011;42042;51.948;7.628;2022-10-16T10:10:24;5.80;;;2.60;;
3369;SDS011;42042;51.948;7.628;2022-10-16T10:12:52;6.40;;;3.03;;
3369;SDS011;42042;51.948;7.628;2022-10-16T10:15:20;3.50;;;2.50;;
3369;SDS011;42042;51.948;7.628;2022-10-16T10:17:51;4.83;;;3.30;;
3369;SDS011;42042;51.948;7.628;2022-10-16T10:20:22;7.33;;;3.40;;
3369;SDS011;42042;51.948;7.628;2022-10-16T10:22:49;7.27;;;3.90;;
3369;SDS011;42042;51.948;7.628;2022-10-16T10:28:18;9.20;;;4.00;;
3369;SDS011;42042;51.948;7.628;2022-10-16T10:30:52;6.87;;;2.80;;
3369;SDS011;42042;51.948;7.628;2022-10-16T10:33:25;7.70;;;3.80;;
3369;SDS011;42042;51.948;7.628;2022-10-16T10:35:56;3.73;;;2.20;;
3369;SDS011;42042;51.948;7.628;2022-10-16T10:38:29;4.27;;;2.63;;
3369;SDS011;42042;51.948;7.628;2022-10-16T10:41:00;2.90;;;2.47;;
3369;SDS011;42042;51.948;7.628;2022-10-16T10:43:38;3.77;;;2.33;;
3369;SDS011;42042;51.948;7.628;2022-10-16T10:46:08;5.80;;;2.20;;
3369;SDS011;42042;51.948;7.628;2022-10-16T10:48:51;4.93;;;2.07;;
3369;SDS011;42042;51.948;7.628;2022-10-16T10:51:22;8.27;;;2.10;;
3369;SDS011;42042;51.948;7.628;2022-10-16T10:53:56;5.33;;;1.97;;
3369;SDS011;42042;51.948;7.628;2022-10-16T10:56:34;2.77;;;2.20;;
3369;SDS011;42042;51.948;7.628;2022-10-16T11:02:00;2.83;;;1.70;;
3369;SDS011;42042;51.948;7.628;2022-10-16T11:04:36;5.17;;;1.90;;
3369;SDS011;42042;51.948;7.628;2022-10-16T11:07:08;3.40;;;2.00;;
3369;SDS011;42042;51.948;7.628;2022-10-16T11:09:38;2.80;;;1.50;;
3369;SDS011;42042;51.948;7.628;2022-10-16T11:12:09;2.37;;;1.77;;
3369;SDS011;42042;51.948;7.628;2022-10-16T11:14:40;5.47;;;1.97;;
3369;SDS011;42042;51.948;7.628;2022-10-16T11:17:10;1.87;;;1.73;;
3369;SDS011;42042;51.948;7.628;2022-10-16T11:19:41;4.60;;;1.90;;
3369;SDS011;42042;51.948;7.628;2022-10-16T11:22:12;3.27;;;1.90;;
3369;SDS011;42042;51.948;7.628;2022-10-16T11:24:41;3.73;;;1.87;;
3369;SDS011;42042;51.948;7.628;2022-10-16T11:27:12;2.83;;;1.30;;
3369;SDS011;42042;51.948;7.628;2022-10-16T11:32:16;3.00;;;1.80;;
3369;SDS011;42042;51.948;7.628;2022-10-16T11:34:49;4.50;;;1.60;;
3369;SDS011;42042;51.948;7.628;2022-10-16T11:37:19;4.33;;;1.80;;
3369;SDS011;42042;51.948;7.628;2022-10-16T11:39:46;2.53;;;1.70;;
3369;SDS011;42042;51.948;7.628;2022-10-16T11:42:16;1.97;;;1.60;;
3369;SDS011;42042;51.948;7.628;2022-10-16T11:44:48;4.87;;;1.50;;
3369;SDS011;42042;51.948;7.628;2022-10-16T11:47:24;3.90;;;1.70;;
3369;SDS011;42042;51.948;7.628;2022-10-16T11:49:55;4.50;;;3.47;;
3369;SDS011;42042;51.948;7.628;2022-10-16T11:52:25;4.90;;;2.10;;
3369;SDS011;42042;51.948;7.628;2022-10-16T11:54:56;3.00;;;2.00;;
3369;SDS011;42042;51.948;7.628;2022-10-16T11:57:26;4.77;;;1.70;;
3369;SDS011;42042;51.948;7.628;2022-10-16T11:59:55;4.80;;;1.87;;
3369;SDS011;42042;51.948;7.628;2022-10-16T12:02:35;8.17;;;2.40;;
3369;SDS011;42042;51.948;7.628;2022-10-16T12:05:14;2.20;;;1.57;;
3369;SDS011;42042;51.948;7.628;2022-10-16T12:07:46;4.43;;;1.87;;
3369;SDS011;42042;51.948;7.628;2022-10-16T12:10:20;4.37;;;1.83;;
3369;SDS011;42042;51.948;7.628;2022-10-16T12:12:47;5.10;;;1.93;;
3369;SDS011;42042;51.948;7.628;2022-10-16T12:15:19;4.17;;;1.80;;
3369;SDS011;42042;51.948;7.628;2022-10-16T12:17:46;2.77;;;1.50;;
3369;SDS011;42042;51.948;7.628;2022-10-16T12:20:25;4.70;;;2.00;;
3369;SDS011;42042;51.948;7.628;2022-10-16T12:22:55;4.17;;;2.33;;
3369;SDS011;42042;51.948;7.628;2022-10-16T12:25:24;2.47;;;1.50;;
3369;SDS011;42042;51.948;7.628;2022-10-16T12:27:56;3.17;;;1.70;;
3369;SDS011;42042;51.948;7.628;2022-10-16T12:30:25;4.10;;;1.50;;
3369;SDS011;42042;51.948;7.628;2022-10-16T12:32:53;2.30;;;1.70;;
3369;SDS011;42042;51.948;7.628;2022-10-16T12:35:21;1.97;;;1.47;;
3369;SDS011;42042;51.948;7.628;2022-10-16T12:37:50;2.03;;;1.50;;
3369;SDS011;42042;51.948;7.628;2022-10-16T12:40:26;1.57;;;1.30;;
3369;SDS011;42042;51.948;7.628;2022-10-16T12:42:53;2.70;;;1.30;;
3369;SDS011;42042;51.948;7.628;2022-10-16T12:45:25;3.57;;;1.90;;
3369;SDS011;42042;51.948;7.628;2022-10-16T12:47:53;2.37;;;2.10;;
3369;SDS011;42042;51.948;7.628;2022-10-16T12:50:25;4.70;;;1.40;;
3369;SDS011;42042;51.948;7.628;2022-10-16T12:52:53;3.40;;;2.27;;
3369;SDS011;42042;51.948;7.628;2022-10-16T12:55:21;2.83;;;1.53;;
3369;SDS011;42042;51.948;7.628;2022-10-16T12:57:57;7.47;;;2.50;;
3369;SDS011;42042;51.948;7.628;2022-10-16T13:00:29;2.80;;;1.60;;
3369;SDS011;42042;51.948;7.628;2022-10-16T13:03:08;4.10;;;2.00;;
3369;SDS011;42042;51.948;7.628;2022-10-16T13:05:43;3.20;;;1.67;;
3369;SDS011;42042;51.948;7.628;2022-10-16T13:08:19;6.10;;;1.70;;
3369;SDS011;42042;51.948;7.628;2022-10-16T13:10:52;3.37;;;1.60;;
3369;SDS011;42042;51.948;7.628;2022-10-16T13:13:28;2.37;;;1.90;;
3369;SDS011;42042;51.948;7.628;2022-10-16T13:16:05;2.33;;;1.70;;
3369;SDS011;42042;51.948;7.628;2022-10-16T13:18:38;2.10;;;1.50;;
3369;SDS011;42042;51.948;7.628;2022-10-16T13:21:12;5.60;;;2.37;;
3369;SDS011;42042;51.948;7.628;2022-10-16T13:23:47;5.23;;;1.77;;
3369;SDS011;42042;51.948;7.628;2022-10-16T13:26:17;3.20;;;1.97;;
3369;SDS011;42042;51.948;7.628;2022-10-16T13:28:47;4.17;;;1.77;;
3369;SDS011;42042;51.948;7.628;2022-10-16T13:31:15;6.17;;;1.73;;
3369;SDS011;42042;51.948;7.628;2022-10-16T13:33:45;3.60;;;1.40;;
3369;SDS011;42042;51.948;7.628;2022-10-16T13:36:20;2.50;;;1.33;;
3369;SDS011;42042;51.948;7.628;2022-10-16T13:38:50;1.80;;;1.57;;
3369;SDS011;42042;51.948;7.628;2022-10-16T13:41:25;2.00;;;1.70;;
3369;SDS011;42042;51.948;7.628;2022-10-16T13:43:53;5.27;;;2.20;;
3369;SDS011;42042;51.948;7.628;2022-10-16T13:46:21;2.00;;;1.70;;
3369;SDS011;42042;51.948;7.628;2022-10-16T13:48:56;5.73;;;1.53;;
3369;SDS011;42042;51.948;7.628;2022-10-16T13:51:23;1.53;;;1.43;;
3369;SDS011;42042;51.948;7.628;2022-10-16T13:53:52;3.00;;;1.67;;
3369;SDS011;42042;51.948;7.628;2022-10-16T13:56:20;2.20;;;1.73;;
3369;SDS011;42042;51.948;7.628;2022-10-16T13:58:57;3.43;;;1.67;;
3369;SDS011;42042;51.948;7.628;2022-10-16T14:01:25;3.90;;;1.83;;
3369;SDS011;42042;51.948;7.628;2022-10-16T14:03:53;6.53;;;1.57;;
3369;SDS011;42042;51.948;7.628;2022-10-16T14:06:27;5.77;;;1.70;;
3369;SDS011;42042;51.948;7.628;2022-10-16T14:08:56;2.17;;;1.90;;
3369;SDS011;42042;51.948;7.628;2022-10-16T14:11:27;9.03;;;1.73;;
3369;SDS011;42042;51.948;7.628;2022-10-16T14:13:54;3.90;;;1.53;;
3369;SDS011;42042;51.948;7.628;2022-10-16T14:16:22;2.80;;;2.00;;
3369;SDS011;42042;51.948;7.628;2022-10-16T14:18:52;3.00;;;1.43;;
3369;SDS011;42042;51.948;7.628;2022-10-16T14:21:22;2.80;;;1.60;;
3369;SDS011;42042;51.948;7.628;2022-10-16T14:23:49;4.13;;;1.80;;
3369;SDS011;42042;51.948;7.628;2022-10-16T14:26:19;5.00;;;1.73;;
3369;SDS011;42042;51.948;7.628;2022-10-16T14:28:46;2.60;;;1.60;;
3369;SDS011;42042;51.948;7.628;2022-10-16T14:31:23;5.43;;;2.10;;
3369;SDS011;42042;51.948;7.628;2022-10-16T14:33:51;5.53;;;1.97;;
3369;SDS011;42042;51.948;7.628;2022-10-16T14:36:18;2.40;;;1.60;;
3369;SDS011;42042;51.948;7.628;2022-10-16T14:38:48;4.07;;;1.63;;
3369;SDS011;42042;51.948;7.628;2022-10-16T14:41:16;2.60;;;1.83;;
3369;SDS011;42042;51.948;7.628;2022-10-16T14:43:49;7.87;;;2.17;;
3369;SDS011;42042;51.948;7.628;2022-10-16T14:46:18;3.40;;;2.00;;
3369;SDS011;42042;51.948;7.628;2022-10-16T14:48:46;2.70;;;1.67;;
3369;SDS011;42042;51.948;7.628;2022-10-16T14:51:14;3.73;;;1.73;;
3369;SDS011;42042;51.948;7.628;2022-10-16T14:53:42;2.50;;;1.70;;
3369;SDS011;42042;51.948;7.628;2022-10-16T14:56:12;3.30;;;1.83;;
3369;SDS011;42042;51.948;7.628;2022-10-16T14:58:42;2.50;;;1.73;;
3369;SDS011;42042;51.948;7.628;2022-10-16T15:01:11;5.50;;;1.70;;
3369;SDS011;42042;51.948;7.628;2022-10-16T15:03:38;3.43;;;2.10;;
3369;SDS011;42042;51.948;7.628;2022-10-16T15:06:08;2.20;;;1.80;;
3369;SDS011;42042;51.948;7.628;2022-10-16T15:08:36;6.83;;;2.33;;
3369;SDS011;42042;51.948;7.628;2022-10-16T15:11:03;12.10;;;2.30;;
3369;SDS011;42042;51.948;7.628;2022-10-16T15:13:31;5.37;;;2.37;;
3369;SDS011;42042;51.948;7.628;2022-10-16T15:15:58;5.67;;;1.70;;
3369;SDS011;42042;51.948;7.628;2022-10-16T15:18:27;2.13;;;1.93;;